Terminal Aerodrome Forecast
Issued by NWS Raleigh/Durham, NC

Home | Current Version | Previous Version | Text Only | Print | Product List | Glossary On
Versions: 1 2 3 4 5 6 7 8 9 10 11 12 13 14 15 16 17 18 19 20 21 22 23 24 25 26 27 28 29
000
FTUS42 KRAH 071737
TAFFAY
TAF
KFAY 071737Z 0718/0818 22008KT P6SM SCT045 BKN250
      TEMPO 0722/0724 5SM -SHRA SCT020 BKN035
     FM080000 20006KT P6SM BKN250
     FM081300 22008KT P6SM SCT045 BKN250=

USA.gov is the U.S. government's official web portal to all federal, state and local government web resources and services.